Edgar B Speer — WQZ9670 — position and weather

sailwx.info

Track history (hours):
 
Tides and Currents Weather Stations Pressure Air Temp Water Temp Dewpoint Dewpoint Depression Visibility Wind Speed Wind Dir Waves Ship Positions

Edgar B Speer

Owner: Great Lakes Fleet, Inc, DULUTH, MN. More information available from US FCC via Universal Licensing System and Coast Guard Vessel Documentation Center.

Last reported at 2015-Jan-14 01:32 UTC. Time now 2015-Jan-28 06:37 UTC.
Position N 45°03' W 086°22'.
Warning: this ship's position is 14 days out of date.

Length 306 m; draft 7.3 m.

Type: Cargo ship. MMSI: 366971330.

Date/timePositionNaut miles runAvg speedWind from/ knotsBaromVisibWave heightAir tempDewpointWater temp
2015-Jan-14 01:32N 45°03' W 086°22'1212.6
2015-Jan-14 00:33N 45°15' W 086°17'1212.5
2015-Jan-13 23:33N 45°27' W 086°12'1212.5
2015-Jan-13 22:33N 45°39' W 086°07'1212.0
2015-Jan-13 21:33N 45°46' W 085°54'1212.3
2015-Jan-13 20:33N 45°52' W 085°38'1110.9
2015-Jan-13 19:33N 45°53' W 085°23'10 9.9
2015-Jan-13 18:33N 45°52' W 085°09'2 2.5
2015-Jan-13 17:33N 45°51' W 085°05'7 6.7
2015-Jan-13 16:33N 45°50' W 084°56'1211.6
2015-Jan-13 15:33N 45°50' W 084°39'1211.5
2015-Jan-13 14:33N 45°52' W 084°23'1212.5
2015-Jan-13 13:33N 45°54' W 084°05'4 3.6
2015-Jan-13 12:33N 45°56' W 084°00'0 0.0
2015-Jan-13 11:33N 45°56' W 084°00'0 0.1
2015-Jan-13 10:33N 45°56' W 084°00'0 0.1
2015-Jan-13 09:31N 45°56' W 084°00'0 0.0
2015-Jan-13 08:27N 45°56' W 084°00'0 0.1
2015-Jan-13 06:33N 45°55' W 084°00'0 0.0
2015-Jan-13 05:33N 45°55' W 084°00'0 0.0
2015-Jan-13 04:33N 45°55' W 084°00'0 0.0
2015-Jan-13 03:33N 45°55' W 084°00'0 0.0
2015-Jan-13 02:33N 45°55' W 084°00'0 0.1
2015-Jan-13 01:33N 45°56' W 083°60'26 6.0
2015-Jan-12 21:10N 46°20' W 084°13'  
2015-Jan-08 14:05N 46°06' W 084°01'  
2015-Jan-04 08:10N 45°57' W 083°54'26 7.0
2015-Jan-04 04:27N 46°20' W 084°13'  
Track history (hours):
 
Tides and Currents Weather Stations Pressure Air Temp Water Temp Dewpoint Dewpoint Depression Visibility Wind Speed Wind Dir Waves Ship Positions

Edgar B Speer

Owner: Great Lakes Fleet, Inc, DULUTH, MN. More information available from US FCC via Universal Licensing System and Coast Guard Vessel Documentation Center.

Last reported at 2015-Jan-14 01:32 UTC. Time now 2015-Jan-28 06:37 UTC.
Position N 45°03' W 086°22'.
Warning: this ship's position is 14 days out of date.

Length 306 m; draft 7.3 m.

Type: Cargo ship. MMSI: 366971330.

Date/timePositionNaut miles runAvg speedWind from/ knotsBaromVisibWave heightAir tempDewpointWater temp
2015-Jan-14 01:32N 45°03' W 086°22'1212.6
2015-Jan-14 00:33N 45°15' W 086°17'1212.5
2015-Jan-13 23:33N 45°27' W 086°12'1212.5
2015-Jan-13 22:33N 45°39' W 086°07'1212.0
2015-Jan-13 21:33N 45°46' W 085°54'1212.3
2015-Jan-13 20:33N 45°52' W 085°38'1110.9
2015-Jan-13 19:33N 45°53' W 085°23'10 9.9
2015-Jan-13 18:33N 45°52' W 085°09'2 2.5
2015-Jan-13 17:33N 45°51' W 085°05'7 6.7
2015-Jan-13 16:33N 45°50' W 084°56'1211.6
2015-Jan-13 15:33N 45°50' W 084°39'1211.5
2015-Jan-13 14:33N 45°52' W 084°23'1212.5
2015-Jan-13 13:33N 45°54' W 084°05'4 3.6
2015-Jan-13 12:33N 45°56' W 084°00'0 0.0
2015-Jan-13 11:33N 45°56' W 084°00'0 0.1
2015-Jan-13 10:33N 45°56' W 084°00'0 0.1
2015-Jan-13 09:31N 45°56' W 084°00'0 0.0
2015-Jan-13 08:27N 45°56' W 084°00'0 0.1
2015-Jan-13 06:33N 45°55' W 084°00'0 0.0
2015-Jan-13 05:33N 45°55' W 084°00'0 0.0
2015-Jan-13 04:33N 45°55' W 084°00'0 0.0
2015-Jan-13 03:33N 45°55' W 084°00'0 0.0
2015-Jan-13 02:33N 45°55' W 084°00'0 0.1
2015-Jan-13 01:33N 45°56' W 083°60'26 6.0
2015-Jan-12 21:10N 46°20' W 084°13'  
2015-Jan-08 14:05N 46°06' W 084°01'  
2015-Jan-04 08:10N 45°57' W 083°54'26 7.0
2015-Jan-04 04:27N 46°20' W 084°13'  

Dump ship's entire track history